Domov               UVHVVR             MKGP            O straneh              
ZDRAVSTVENO VARSTVO RASTLIN
  MREŽA AGROMET. POSTAJ
 ► PROGNOSTIČNA OBVESTILA
AGROMETEOROLOŠKI PODATKI -
ARSO
OBVLADOVANJE TVEGANJ ZARADI
NEUGODNIH VREMENSKIH RAZMER
  ► NARAVNE NESREČE
  ► SUŠA/MOČA
  ► NAMAKANJE
  ► ŽLED (gozdarstvo)
KARTOGRAFSKI PRIKAZI
SPLETNE POVEZAVE
PROJEKTI IN PUBLIKACIJE

AGROMETEOROLOŠKA MREŽA: VREMENSKE POSTAJE IN FENOLOŠKA OPAZOVANJA

Pregled podatkov za lokacijo Selnica ob Dravi, meteorološka postaja 49160

Pregled senzorjev na lokaciji

ID Ime Zadnja
vrednost
Datum
zadnje
spremembe
Tip
senzorja
3696 Temperatura 2 m ( °C) 20,66 °C 19.10.2017 16:00 50YA
3697 Relativna vlaga 2 m (% RH) 50,09 % RH 19.10.2017 16:00 50YA
3698 Omočenost lista (U) 0 U 19.10.2017 16:00 A730WET
3699 Sončno sevanje (W/m2) 252,2 W/m2 19.10.2017 16:00 Pyranometer SP-Lite
3700 Temperatura tal ( °C) 13,37 °C 19.10.2017 16:00 99TG411E
3701 Hitrost vetra (km/h) 5,47 km/h 19.10.2017 15:59 566.2S-176 (200km/h)
3702 Smer vetra (°) 47,41 ° 19.10.2017 15:59 566.2S-130
3703 Padavine 0.2 mm (mm) 0 mm 19.10.2017 16:00 Rain-O-Matic

Pregled podatkov zadnjih 24 ur

Zap.
št.
Datum in čas Selnica ob Dravi
Hitrost
vetra
Omočenost
lista
Padavine
0.2
mm
Relativna
vlaga
2
m
Smer
vetra
Sončno
sevanje
Temperatura
2
m
Temperatura
tal
0 19.10.2017 15:00 5,47 0 0 50,09 47,41 252,2 20,66 13,37
1 19.10.2017 14:30 5,94 0 0 50,08 38,11 315,86 20,7 13,33
2 19.10.2017 14:00 6,93 0 0 49,39 66,05 373,17 20,42 13,3
3 19.10.2017 13:30 6,56 0 0 51,73 54,61 418,8 20,33 13,27
4 19.10.2017 13:00 7,41 0 0 53,15 21,74 461,83 20,42 13,23
5 19.10.2017 12:30 4,41 0 0 51,12 16,23 495,03 20,73 13,22
6 19.10.2017 12:00 4,46 0 0 48,09 84,29 510,41 20,81 13,15
7 19.10.2017 11:30 3,58 0 0 48,52 180,61 505,65 20,34 13,09
8 19.10.2017 11:00 5,15 0 0 50,85 253,95 492,44 19,38 13,02
9 19.10.2017 10:30 5,58 0 0 52,78 197,2 464,21 18,6 13
10 19.10.2017 10:00 5,8 0 0 58,26 243,17 426,31 17,16 12,95
11 19.10.2017 09:30 5,98 0 0 63,38 244,5 377,39 15,5 12,91
12 19.10.2017 09:00 4,97 0 0 67,49 222,58 316,78 14,41 12,85
13 19.10.2017 08:30 4,95 0 0 68,02 265,04 250,19 13,78 12,83
14 19.10.2017 08:00 4,31 0 0 71,54 237,22 177,49 12,75 12,81
15 19.10.2017 07:30 3,1 10 0 82,34 189,74 99,61 10,3 12,75
16 19.10.2017 07:00 3,35 10 0 88,56 259,83 13,09 8,19 12,71
17 19.10.2017 06:30 2,76 8 0 93,25 285,87 3,11 6,78 12,74
18 19.10.2017 06:00 1,61 1 0 88,13 329,8 0,43 7,69 12,83
19 19.10.2017 05:30 4,75 0 0 73,93 327,66 0,37 10,96 12,9
20 19.10.2017 05:00 4,94 0 0 75,41 172,66 0,4 10,89 12,91
21 19.10.2017 04:30 5,89 0 0 76,14 264,07 0,4 10,76 12,94
22 19.10.2017 04:00 5,44 0 0 77,7 262,91 0,4 10,73 12,97
23 19.10.2017 03:30 4,16 0 0 81,52 287,09 0,4 9,88 12,98
24 19.10.2017 03:00 4,01 0 0 80,55 294,09 0,46 9,82 13,02
25 19.10.2017 02:30 3,92 0 0 81,49 225,57 0,4 10,18 13,06
26 19.10.2017 02:00 4,27 0 0 79,61 200,6 0,43 10,64 13,08
27 19.10.2017 01:30 4,38 0 0 80,7 184,68 0,46 10,43 13,13
28 19.10.2017 01:00 4,6 0 0 82,51 273,15 0,43 10 13,15
29 19.10.2017 00:30 3,98 0 0 83,23 219,25 0,43 9,95 13,18
30 19.10.2017 00:00 3,32 1 0 84,94 274,6 9,78 13,21
31 18.10.2017 23:30 2,82 1 0 83,93 203,51 10,15 13,24
32 18.10.2017 23:00 3,01 0 0 84,18 307,96 10,24 13,29
33 18.10.2017 22:30 3,52 0 0 82,74 248,21 10,62 13,32
34 18.10.2017 22:00 2,03 1 0 83,22 198,33 10,61 13,36
35 18.10.2017 21:30 2,38 0 0 75,94 245,34 11,86 13,4
36 18.10.2017 21:00 2,75 0 0 77,67 215,62 12,05 13,44
37 18.10.2017 20:30 4,67 0 0 77,75 184,89 12,43 13,48
38 18.10.2017 20:00 2,89 3 0 84,05 187,78 11,84 13,46
39 18.10.2017 19:30 1 1 0 84,73 226,53 11,84 13,49
40 18.10.2017 19:00 1,06 0 0 79,41 259,92 12,97 13,51
41 18.10.2017 18:30 4,79 0 0 78,19 158,65 13,47 13,53
42 18.10.2017 18:00 4,54 0 0 76,83 288,09 13,92 13,55
43 18.10.2017 17:30 7,43 0 0 70,37 304,16 15,52 13,56
44 18.10.2017 17:00 5,36 0 0 62,79 302,05 9,89 17,65 13,58
45 18.10.2017 16:30 3,01 0 0 47,28 289,16 17,61 20,47 13,57
© 2011 Ministrstvo za kmetijstvo, gozdarstvo in prehrano. Vse pravice pridržane.